sensor_id;sensor_type;location;lat;lon;timestamp;P1;durP1;ratioP1;P2;durP2;ratioP2
49978;SDS011;35869;50.990;6.962;2023-12-14T00:01:52;25.38;;;18.00;;
49978;SDS011;35869;50.990;6.962;2023-12-14T00:06:52;30.17;;;18.48;;
49978;SDS011;35869;50.990;6.962;2023-12-14T00:11:53;24.85;;;18.52;;
49978;SDS011;35869;50.990;6.962;2023-12-14T00:16:53;31.35;;;19.52;;
49978;SDS011;35869;50.990;6.962;2023-12-14T00:21:53;33.45;;;21.15;;
49978;SDS011;35869;50.990;6.962;2023-12-14T00:26:53;30.20;;;20.77;;
49978;SDS011;35869;50.990;6.962;2023-12-14T00:31:53;29.60;;;22.05;;
49978;SDS011;35869;50.990;6.962;2023-12-14T00:36:54;40.15;;;21.95;;
49978;SDS011;35869;50.990;6.962;2023-12-14T00:41:54;35.40;;;21.98;;
49978;SDS011;35869;50.990;6.962;2023-12-14T00:46:54;32.63;;;22.02;;
49978;SDS011;35869;50.990;6.962;2023-12-14T00:51:54;43.53;;;23.10;;
49978;SDS011;35869;50.990;6.962;2023-12-14T00:56:55;36.17;;;24.42;;
49978;SDS011;35869;50.990;6.962;2023-12-14T01:01:55;37.65;;;24.55;;
49978;SDS011;35869;50.990;6.962;2023-12-14T01:06:55;37.13;;;23.98;;
49978;SDS011;35869;50.990;6.962;2023-12-14T01:11:55;36.55;;;21.95;;
49978;SDS011;35869;50.990;6.962;2023-12-14T01:16:56;41.77;;;25.37;;
49978;SDS011;35869;50.990;6.962;2023-12-14T01:21:56;42.40;;;24.43;;
49978;SDS011;35869;50.990;6.962;2023-12-14T01:26:56;45.63;;;26.88;;
49978;SDS011;35869;50.990;6.962;2023-12-14T01:31:56;49.40;;;28.40;;
49978;SDS011;35869;50.990;6.962;2023-12-14T01:36:57;53.15;;;29.17;;
49978;SDS011;35869;50.990;6.962;2023-12-14T01:41:57;50.70;;;27.23;;
49978;SDS011;35869;50.990;6.962;2023-12-14T01:46:57;60.72;;;29.23;;
49978;SDS011;35869;50.990;6.962;2023-12-14T01:51:57;45.40;;;26.52;;
49978;SDS011;35869;50.990;6.962;2023-12-14T01:56:57;51.50;;;26.45;;
49978;SDS011;35869;50.990;6.962;2023-12-14T02:01:58;52.10;;;29.30;;
49978;SDS011;35869;50.990;6.962;2023-12-14T02:06:59;53.88;;;30.50;;
49978;SDS011;35869;50.990;6.962;2023-12-14T02:11:59;46.83;;;25.50;;
49978;SDS011;35869;50.990;6.962;2023-12-14T02:16:59;47.28;;;26.95;;
49978;SDS011;35869;50.990;6.962;2023-12-14T02:21:59;49.13;;;28.98;;
49978;SDS011;35869;50.990;6.962;2023-12-14T02:26:59;48.78;;;27.23;;
49978;SDS011;35869;50.990;6.962;2023-12-14T02:32:00;51.25;;;28.00;;
49978;SDS011;35869;50.990;6.962;2023-12-14T02:37:00;54.03;;;26.92;;
49978;SDS011;35869;50.990;6.962;2023-12-14T02:42:00;55.75;;;28.30;;
49978;SDS011;35869;50.990;6.962;2023-12-14T02:47:00;54.10;;;26.40;;
49978;SDS011;35869;50.990;6.962;2023-12-14T02:52:01;52.03;;;27.40;;
49978;SDS011;35869;50.990;6.962;2023-12-14T02:57:01;46.92;;;25.23;;
49978;SDS011;35869;50.990;6.962;2023-12-14T03:02:01;46.15;;;25.45;;
49978;SDS011;35869;50.990;6.962;2023-12-14T03:07:01;44.95;;;25.20;;
49978;SDS011;35869;50.990;6.962;2023-12-14T03:12:02;37.13;;;22.33;;
49978;SDS011;35869;50.990;6.962;2023-12-14T03:17:02;38.23;;;22.40;;
49978;SDS011;35869;50.990;6.962;2023-12-14T03:22:02;36.27;;;22.70;;
49978;SDS011;35869;50.990;6.962;2023-12-14T03:27:03;36.63;;;22.07;;
49978;SDS011;35869;50.990;6.962;2023-12-14T03:32:04;34.55;;;22.67;;
49978;SDS011;35869;50.990;6.962;2023-12-14T03:37:04;40.50;;;24.07;;
49978;SDS011;35869;50.990;6.962;2023-12-14T03:42:04;37.17;;;22.88;;
49978;SDS011;35869;50.990;6.962;2023-12-14T03:47:04;35.13;;;22.23;;
49978;SDS011;35869;50.990;6.962;2023-12-14T03:52:05;28.52;;;17.95;;
49978;SDS011;35869;50.990;6.962;2023-12-14T03:57:05;21.23;;;13.60;;
49978;SDS011;35869;50.990;6.962;2023-12-14T04:02:05;21.13;;;15.10;;
49978;SDS011;35869;50.990;6.962;2023-12-14T04:07:06;19.93;;;13.90;;
49978;SDS011;35869;50.990;6.962;2023-12-14T04:12:06;24.88;;;16.67;;
49978;SDS011;35869;50.990;6.962;2023-12-14T04:17:06;19.50;;;15.02;;
49978;SDS011;35869;50.990;6.962;2023-12-14T04:22:06;25.50;;;15.57;;
49978;SDS011;35869;50.990;6.962;2023-12-14T04:27:07;21.77;;;13.48;;
49978;SDS011;35869;50.990;6.962;2023-12-14T04:32:07;23.15;;;15.18;;
49978;SDS011;35869;50.990;6.962;2023-12-14T04:42:08;29.45;;;17.67;;
49978;SDS011;35869;50.990;6.962;2023-12-14T04:47:08;28.95;;;18.55;;
49978;SDS011;35869;50.990;6.962;2023-12-14T04:52:08;31.15;;;19.00;;
49978;SDS011;35869;50.990;6.962;2023-12-14T04:57:09;30.02;;;19.38;;
49978;SDS011;35869;50.990;6.962;2023-12-14T05:02:09;30.58;;;20.08;;
49978;SDS011;35869;50.990;6.962;2023-12-14T05:07:09;32.87;;;20.80;;
49978;SDS011;35869;50.990;6.962;2023-12-14T05:12:09;32.83;;;21.23;;
49978;SDS011;35869;50.990;6.962;2023-12-14T05:17:10;29.00;;;19.48;;
49978;SDS011;35869;50.990;6.962;2023-12-14T05:22:10;32.47;;;19.67;;
49978;SDS011;35869;50.990;6.962;2023-12-14T05:27:10;32.38;;;20.30;;
49978;SDS011;35869;50.990;6.962;2023-12-14T05:32:11;36.90;;;20.73;;
49978;SDS011;35869;50.990;6.962;2023-12-14T05:37:11;34.60;;;21.10;;
49978;SDS011;35869;50.990;6.962;2023-12-14T05:42:11;33.42;;;19.98;;
49978;SDS011;35869;50.990;6.962;2023-12-14T05:47:11;36.20;;;20.13;;
49978;SDS011;35869;50.990;6.962;2023-12-14T05:52:11;35.55;;;22.00;;
49978;SDS011;35869;50.990;6.962;2023-12-14T05:57:12;33.10;;;21.37;;
49978;SDS011;35869;50.990;6.962;2023-12-14T06:02:12;35.15;;;21.13;;
49978;SDS011;35869;50.990;6.962;2023-12-14T06:07:14;43.85;;;23.58;;
49978;SDS011;35869;50.990;6.962;2023-12-14T06:12:14;38.40;;;22.40;;
49978;SDS011;35869;50.990;6.962;2023-12-14T06:17:15;41.92;;;24.52;;
49978;SDS011;35869;50.990;6.962;2023-12-14T06:22:15;45.70;;;26.30;;
49978;SDS011;35869;50.990;6.962;2023-12-14T06:27:15;44.25;;;26.75;;
49978;SDS011;35869;50.990;6.962;2023-12-14T06:32:16;43.33;;;24.92;;
49978;SDS011;35869;50.990;6.962;2023-12-14T06:37:16;41.17;;;22.50;;
49978;SDS011;35869;50.990;6.962;2023-12-14T06:42:17;35.58;;;20.63;;
49978;SDS011;35869;50.990;6.962;2023-12-14T06:52:17;39.05;;;22.08;;
49978;SDS011;35869;50.990;6.962;2023-12-14T06:57:18;40.22;;;21.95;;
49978;SDS011;35869;50.990;6.962;2023-12-14T07:02:18;36.33;;;21.27;;
49978;SDS011;35869;50.990;6.962;2023-12-14T07:07:18;31.38;;;17.05;;
49978;SDS011;35869;50.990;6.962;2023-12-14T07:12:18;35.97;;;20.10;;
49978;SDS011;35869;50.990;6.962;2023-12-14T07:17:19;38.17;;;21.83;;
49978;SDS011;35869;50.990;6.962;2023-12-14T07:22:19;43.53;;;25.33;;
49978;SDS011;35869;50.990;6.962;2023-12-14T07:27:19;48.25;;;26.75;;
49978;SDS011;35869;50.990;6.962;2023-12-14T07:32:19;55.47;;;28.73;;
49978;SDS011;35869;50.990;6.962;2023-12-14T07:37:20;55.72;;;29.52;;
49978;SDS011;35869;50.990;6.962;2023-12-14T07:42:20;53.28;;;29.83;;
49978;SDS011;35869;50.990;6.962;2023-12-14T07:47:20;56.90;;;29.63;;
49978;SDS011;35869;50.990;6.962;2023-12-14T07:52:20;49.50;;;27.37;;
49978;SDS011;35869;50.990;6.962;2023-12-14T07:57:21;47.05;;;26.02;;
49978;SDS011;35869;50.990;6.962;2023-12-14T08:02:21;51.72;;;27.73;;
49978;SDS011;35869;50.990;6.962;2023-12-14T08:07:21;41.67;;;23.90;;
49978;SDS011;35869;50.990;6.962;2023-12-14T08:12:22;54.45;;;29.58;;
49978;SDS011;35869;50.990;6.962;2023-12-14T08:17:23;48.90;;;24.98;;
49978;SDS011;35869;50.990;6.962;2023-12-14T08:22:23;48.00;;;28.02;;
49978;SDS011;35869;50.990;6.962;2023-12-14T08:27:23;49.10;;;25.40;;
49978;SDS011;35869;50.990;6.962;2023-12-14T08:32:23;66.07;;;28.83;;
49978;SDS011;35869;50.990;6.962;2023-12-14T08:37:23;51.03;;;26.20;;
49978;SDS011;35869;50.990;6.962;2023-12-14T08:42:24;46.15;;;26.77;;
49978;SDS011;35869;50.990;6.962;2023-12-14T08:47:24;50.90;;;27.55;;
49978;SDS011;35869;50.990;6.962;2023-12-14T08:52:24;43.72;;;23.40;;
49978;SDS011;35869;50.990;6.962;2023-12-14T08:57:24;36.05;;;19.63;;
49978;SDS011;35869;50.990;6.962;2023-12-14T09:02:25;36.78;;;21.83;;
49978;SDS011;35869;50.990;6.962;2023-12-14T09:07:25;28.08;;;16.10;;
49978;SDS011;35869;50.990;6.962;2023-12-14T09:12:26;30.17;;;17.23;;
49978;SDS011;35869;50.990;6.962;2023-12-14T09:17:26;28.07;;;17.27;;
49978;SDS011;35869;50.990;6.962;2023-12-14T09:22:26;30.60;;;16.93;;
49978;SDS011;35869;50.990;6.962;2023-12-14T09:27:27;30.40;;;17.75;;
49978;SDS011;35869;50.990;6.962;2023-12-14T09:32:27;33.05;;;17.38;;
49978;SDS011;35869;50.990;6.962;2023-12-14T09:37:27;41.10;;;21.80;;
49978;SDS011;35869;50.990;6.962;2023-12-14T09:42:27;37.80;;;22.77;;
49978;SDS011;35869;50.990;6.962;2023-12-14T09:47:28;42.40;;;24.47;;
49978;SDS011;35869;50.990;6.962;2023-12-14T09:52:28;55.22;;;27.42;;
49978;SDS011;35869;50.990;6.962;2023-12-14T09:57:29;58.83;;;31.73;;
49978;SDS011;35869;50.990;6.962;2023-12-14T10:02:29;65.47;;;30.45;;
49978;SDS011;35869;50.990;6.962;2023-12-14T10:07:30;63.35;;;34.17;;
49978;SDS011;35869;50.990;6.962;2023-12-14T10:12:31;61.88;;;33.97;;
49978;SDS011;35869;50.990;6.962;2023-12-14T10:17:31;59.03;;;33.25;;
49978;SDS011;35869;50.990;6.962;2023-12-14T10:22:32;56.27;;;29.93;;
49978;SDS011;35869;50.990;6.962;2023-12-14T10:32:33;57.80;;;31.65;;
49978;SDS011;35869;50.990;6.962;2023-12-14T10:37:35;70.43;;;35.58;;
49978;SDS011;35869;50.990;6.962;2023-12-14T10:42:37;59.83;;;31.30;;
49978;SDS011;35869;50.990;6.962;2023-12-14T10:47:45;74.43;;;32.30;;
49978;SDS011;35869;50.990;6.962;2023-12-14T10:52:46;66.40;;;35.53;;
49978;SDS011;35869;50.990;6.962;2023-12-14T10:57:47;60.67;;;35.17;;
49978;SDS011;35869;50.990;6.962;2023-12-14T11:02:47;61.23;;;33.10;;
49978;SDS011;35869;50.990;6.962;2023-12-14T11:07:54;69.18;;;36.83;;
49978;SDS011;35869;50.990;6.962;2023-12-14T11:12:57;54.40;;;33.47;;
49978;SDS011;35869;50.990;6.962;2023-12-14T11:23:07;61.45;;;33.50;;
49978;SDS011;35869;50.990;6.962;2023-12-14T11:28:08;54.63;;;31.00;;
49978;SDS011;35869;50.990;6.962;2023-12-14T11:33:08;52.17;;;32.30;;
49978;SDS011;35869;50.990;6.962;2023-12-14T11:38:08;47.63;;;28.92;;
49978;SDS011;35869;50.990;6.962;2023-12-14T11:43:09;52.40;;;28.63;;
49978;SDS011;35869;50.990;6.962;2023-12-14T11:48:10;48.67;;;27.75;;
49978;SDS011;35869;50.990;6.962;2023-12-14T11:53:12;51.15;;;29.38;;
49978;SDS011;35869;50.990;6.962;2023-12-14T11:58:12;49.53;;;27.17;;
49978;SDS011;35869;50.990;6.962;2023-12-14T12:08:14;49.83;;;28.38;;
49978;SDS011;35869;50.990;6.962;2023-12-14T12:13:16;49.33;;;27.52;;
49978;SDS011;35869;50.990;6.962;2023-12-14T12:18:17;44.55;;;25.65;;
49978;SDS011;35869;50.990;6.962;2023-12-14T12:23:18;44.60;;;24.77;;
49978;SDS011;35869;50.990;6.962;2023-12-14T12:28:18;37.57;;;23.23;;
49978;SDS011;35869;50.990;6.962;2023-12-14T12:33:18;40.15;;;23.42;;
49978;SDS011;35869;50.990;6.962;2023-12-14T12:38:18;39.20;;;22.65;;
49978;SDS011;35869;50.990;6.962;2023-12-14T12:43:19;30.63;;;19.48;;
49978;SDS011;35869;50.990;6.962;2023-12-14T12:48:19;31.55;;;18.60;;
49978;SDS011;35869;50.990;6.962;2023-12-14T12:53:19;33.17;;;19.77;;
49978;SDS011;35869;50.990;6.962;2023-12-14T12:58:19;32.13;;;19.90;;
49978;SDS011;35869;50.990;6.962;2023-12-14T13:03:19;28.83;;;15.70;;
49978;SDS011;35869;50.990;6.962;2023-12-14T13:08:20;31.35;;;18.35;;
49978;SDS011;35869;50.990;6.962;2023-12-14T13:13:20;26.30;;;15.88;;
49978;SDS011;35869;50.990;6.962;2023-12-14T13:18:20;25.58;;;15.15;;
49978;SDS011;35869;50.990;6.962;2023-12-14T13:23:20;21.30;;;13.48;;
49978;SDS011;35869;50.990;6.962;2023-12-14T13:28:20;15.38;;;10.98;;
49978;SDS011;35869;50.990;6.962;2023-12-14T13:33:21;22.37;;;12.10;;
49978;SDS011;35869;50.990;6.962;2023-12-14T13:38:21;20.70;;;11.15;;
49978;SDS011;35869;50.990;6.962;2023-12-14T13:43:21;17.58;;;11.73;;
49978;SDS011;35869;50.990;6.962;2023-12-14T13:48:22;16.27;;;11.45;;
49978;SDS011;35869;50.990;6.962;2023-12-14T13:53:22;16.70;;;10.43;;
49978;SDS011;35869;50.990;6.962;2023-12-14T13:58:22;15.25;;;10.32;;
49978;SDS011;35869;50.990;6.962;2023-12-14T14:03:23;13.85;;;10.27;;
49978;SDS011;35869;50.990;6.962;2023-12-14T14:08:23;13.73;;;9.07;;
49978;SDS011;35869;50.990;6.962;2023-12-14T14:13:24;13.73;;;8.90;;
49978;SDS011;35869;50.990;6.962;2023-12-14T14:18:24;13.30;;;8.82;;
49978;SDS011;35869;50.990;6.962;2023-12-14T14:23:24;14.38;;;9.65;;
49978;SDS011;35869;50.990;6.962;2023-12-14T14:28:24;12.18;;;8.32;;
49978;SDS011;35869;50.990;6.962;2023-12-14T14:33:25;16.75;;;9.00;;
49978;SDS011;35869;50.990;6.962;2023-12-14T14:38:25;17.48;;;10.32;;
49978;SDS011;35869;50.990;6.962;2023-12-14T14:43:25;12.63;;;8.55;;
49978;SDS011;35869;50.990;6.962;2023-12-14T14:48:25;14.85;;;8.88;;
49978;SDS011;35869;50.990;6.962;2023-12-14T14:53:25;12.48;;;8.35;;
49978;SDS011;35869;50.990;6.962;2023-12-14T14:58:26;16.27;;;9.52;;
49978;SDS011;35869;50.990;6.962;2023-12-14T15:03:26;12.35;;;9.35;;
49978;SDS011;35869;50.990;6.962;2023-12-14T15:08:26;14.50;;;9.43;;
49978;SDS011;35869;50.990;6.962;2023-12-14T15:13:26;14.63;;;9.80;;
49978;SDS011;35869;50.990;6.962;2023-12-14T15:18:27;13.60;;;9.60;;
49978;SDS011;35869;50.990;6.962;2023-12-14T15:23:27;13.48;;;9.32;;
49978;SDS011;35869;50.990;6.962;2023-12-14T15:28:27;13.27;;;10.23;;
49978;SDS011;35869;50.990;6.962;2023-12-14T15:33:28;10.95;;;8.80;;
49978;SDS011;35869;50.990;6.962;2023-12-14T15:38:28;13.48;;;9.07;;
49978;SDS011;35869;50.990;6.962;2023-12-14T15:43:28;20.48;;;9.57;;
49978;SDS011;35869;50.990;6.962;2023-12-14T15:48:29;12.82;;;8.90;;
49978;SDS011;35869;50.990;6.962;2023-12-14T15:53:29;18.40;;;9.50;;
49978;SDS011;35869;50.990;6.962;2023-12-14T15:58:29;12.93;;;9.10;;
49978;SDS011;35869;50.990;6.962;2023-12-14T16:03:30;11.60;;;7.95;;
49978;SDS011;35869;50.990;6.962;2023-12-14T16:08:31;15.00;;;7.55;;
49978;SDS011;35869;50.990;6.962;2023-12-14T16:13:32;13.88;;;7.95;;
49978;SDS011;35869;50.990;6.962;2023-12-14T16:18:32;14.35;;;7.68;;
49978;SDS011;35869;50.990;6.962;2023-12-14T16:23:34;13.25;;;8.48;;
49978;SDS011;35869;50.990;6.962;2023-12-14T16:28:34;12.18;;;9.18;;
49978;SDS011;35869;50.990;6.962;2023-12-14T16:33:37;13.27;;;8.77;;
49978;SDS011;35869;50.990;6.962;2023-12-14T16:38:37;13.25;;;8.90;;
49978;SDS011;35869;50.990;6.962;2023-12-14T16:43:37;12.85;;;9.57;;
49978;SDS011;35869;50.990;6.962;2023-12-14T16:48:38;23.40;;;9.73;;
49978;SDS011;35869;50.990;6.962;2023-12-14T16:53:39;14.75;;;10.98;;
49978;SDS011;35869;50.990;6.962;2023-12-14T16:58:40;15.90;;;10.30;;
49978;SDS011;35869;50.990;6.962;2023-12-14T17:03:40;12.48;;;9.35;;
49978;SDS011;35869;50.990;6.962;2023-12-14T17:08:40;16.10;;;10.63;;
49978;SDS011;35869;50.990;6.962;2023-12-14T17:13:42;15.10;;;10.60;;
49978;SDS011;35869;50.990;6.962;2023-12-14T17:18:42;15.95;;;11.02;;
49978;SDS011;35869;50.990;6.962;2023-12-14T17:28:47;17.85;;;12.63;;
49978;SDS011;35869;50.990;6.962;2023-12-14T17:33:49;15.40;;;10.70;;
49978;SDS011;35869;50.990;6.962;2023-12-14T17:38:49;16.23;;;10.87;;
49978;SDS011;35869;50.990;6.962;2023-12-14T17:43:49;19.45;;;12.13;;
49978;SDS011;35869;50.990;6.962;2023-12-14T17:48:50;19.42;;;13.63;;
49978;SDS011;35869;50.990;6.962;2023-12-14T17:53:50;19.60;;;13.60;;
49978;SDS011;35869;50.990;6.962;2023-12-14T17:58:50;19.10;;;13.05;;
49978;SDS011;35869;50.990;6.962;2023-12-14T18:03:50;18.85;;;12.18;;
49978;SDS011;35869;50.990;6.962;2023-12-14T18:08:50;22.10;;;14.15;;
49978;SDS011;35869;50.990;6.962;2023-12-14T18:13:51;21.45;;;14.23;;
49978;SDS011;35869;50.990;6.962;2023-12-14T18:18:51;21.47;;;14.47;;
49978;SDS011;35869;50.990;6.962;2023-12-14T18:23:51;26.00;;;15.15;;
49978;SDS011;35869;50.990;6.962;2023-12-14T18:28:52;21.50;;;14.80;;
49978;SDS011;35869;50.990;6.962;2023-12-14T18:33:52;23.92;;;15.85;;
49978;SDS011;35869;50.990;6.962;2023-12-14T18:38:52;25.15;;;15.57;;
49978;SDS011;35869;50.990;6.962;2023-12-14T18:43:52;23.75;;;16.92;;
49978;SDS011;35869;50.990;6.962;2023-12-14T18:48:52;20.55;;;14.88;;
49978;SDS011;35869;50.990;6.962;2023-12-14T18:53:53;20.85;;;15.23;;
49978;SDS011;35869;50.990;6.962;2023-12-14T18:58:53;23.55;;;15.68;;
49978;SDS011;35869;50.990;6.962;2023-12-14T19:03:53;24.45;;;15.45;;
49978;SDS011;35869;50.990;6.962;2023-12-14T19:08:53;22.70;;;15.23;;
49978;SDS011;35869;50.990;6.962;2023-12-14T19:13:53;24.60;;;15.48;;
49978;SDS011;35869;50.990;6.962;2023-12-14T19:18:54;22.10;;;15.38;;
49978;SDS011;35869;50.990;6.962;2023-12-14T19:23:54;21.13;;;15.07;;
49978;SDS011;35869;50.990;6.962;2023-12-14T19:28:54;23.08;;;14.25;;
49978;SDS011;35869;50.990;6.962;2023-12-14T19:33:54;22.07;;;14.73;;
49978;SDS011;35869;50.990;6.962;2023-12-14T19:38:55;24.40;;;15.13;;
49978;SDS011;35869;50.990;6.962;2023-12-14T19:43:55;23.40;;;15.45;;
49978;SDS011;35869;50.990;6.962;2023-12-14T19:48:55;23.02;;;15.05;;
49978;SDS011;35869;50.990;6.962;2023-12-14T19:53:56;21.57;;;15.53;;
49978;SDS011;35869;50.990;6.962;2023-12-14T19:58:57;22.10;;;15.23;;
49978;SDS011;35869;50.990;6.962;2023-12-14T20:03:59;27.00;;;18.00;;
49978;SDS011;35869;50.990;6.962;2023-12-14T20:09:00;29.02;;;20.30;;
49978;SDS011;35869;50.990;6.962;2023-12-14T20:14:00;26.98;;;19.13;;
49978;SDS011;35869;50.990;6.962;2023-12-14T20:19:00;28.77;;;18.42;;
49978;SDS011;35869;50.990;6.962;2023-12-14T20:24:00;24.70;;;17.02;;
49978;SDS011;35869;50.990;6.962;2023-12-14T20:29:01;22.03;;;16.43;;
49978;SDS011;35869;50.990;6.962;2023-12-14T20:34:02;22.35;;;15.93;;
49978;SDS011;35869;50.990;6.962;2023-12-14T20:39:02;24.92;;;17.40;;
49978;SDS011;35869;50.990;6.962;2023-12-14T20:44:02;34.80;;;18.60;;
49978;SDS011;35869;50.990;6.962;2023-12-14T20:49:03;24.67;;;17.00;;
49978;SDS011;35869;50.990;6.962;2023-12-14T20:54:03;20.98;;;14.45;;
49978;SDS011;35869;50.990;6.962;2023-12-14T20:59:03;23.10;;;16.03;;
49978;SDS011;35869;50.990;6.962;2023-12-14T21:04:04;23.33;;;15.97;;
49978;SDS011;35869;50.990;6.962;2023-12-14T21:09:04;25.17;;;15.83;;
49978;SDS011;35869;50.990;6.962;2023-12-14T21:14:07;25.80;;;15.43;;
49978;SDS011;35869;50.990;6.962;2023-12-14T21:19:09;24.52;;;16.73;;
49978;SDS011;35869;50.990;6.962;2023-12-14T21:24:09;21.23;;;14.55;;
49978;SDS011;35869;50.990;6.962;2023-12-14T21:29:10;20.57;;;14.70;;
49978;SDS011;35869;50.990;6.962;2023-12-14T21:34:10;21.95;;;14.75;;
49978;SDS011;35869;50.990;6.962;2023-12-14T21:39:11;23.38;;;15.85;;
49978;SDS011;35869;50.990;6.962;2023-12-14T21:44:11;19.73;;;14.05;;
49978;SDS011;35869;50.990;6.962;2023-12-14T21:49:18;21.90;;;13.73;;
49978;SDS011;35869;50.990;6.962;2023-12-14T21:54:18;21.58;;;13.52;;
49978;SDS011;35869;50.990;6.962;2023-12-14T21:59:19;23.97;;;16.90;;
49978;SDS011;35869;50.990;6.962;2023-12-14T22:04:19;27.48;;;18.27;;
49978;SDS011;35869;50.990;6.962;2023-12-14T22:09:19;27.15;;;18.23;;
49978;SDS011;35869;50.990;6.962;2023-12-14T22:14:19;26.25;;;17.42;;
49978;SDS011;35869;50.990;6.962;2023-12-14T22:19:20;23.52;;;16.00;;
49978;SDS011;35869;50.990;6.962;2023-12-14T22:24:20;22.08;;;16.13;;
49978;SDS011;35869;50.990;6.962;2023-12-14T22:29:20;25.30;;;16.85;;
49978;SDS011;35869;50.990;6.962;2023-12-14T22:34:20;23.73;;;15.93;;
49978;SDS011;35869;50.990;6.962;2023-12-14T22:39:20;23.88;;;15.55;;
49978;SDS011;35869;50.990;6.962;2023-12-14T22:44:21;24.55;;;15.82;;
49978;SDS011;35869;50.990;6.962;2023-12-14T22:49:21;25.42;;;16.17;;
49978;SDS011;35869;50.990;6.962;2023-12-14T22:54:21;26.08;;;16.58;;
49978;SDS011;35869;50.990;6.962;2023-12-14T22:59:21;21.58;;;16.00;;
49978;SDS011;35869;50.990;6.962;2023-12-14T23:04:22;25.27;;;16.20;;
49978;SDS011;35869;50.990;6.962;2023-12-14T23:09:22;23.55;;;15.82;;
49978;SDS011;35869;50.990;6.962;2023-12-14T23:14:22;28.08;;;16.88;;
49978;SDS011;35869;50.990;6.962;2023-12-14T23:19:22;24.42;;;16.45;;
49978;SDS011;35869;50.990;6.962;2023-12-14T23:24:23;28.27;;;15.93;;
49978;SDS011;35869;50.990;6.962;2023-12-14T23:29:23;28.80;;;17.90;;
49978;SDS011;35869;50.990;6.962;2023-12-14T23:34:23;28.23;;;17.00;;
49978;SDS011;35869;50.990;6.962;2023-12-14T23:39:23;30.80;;;19.42;;
49978;SDS011;35869;50.990;6.962;2023-12-14T23:44:23;31.05;;;18.50;;
49978;SDS011;35869;50.990;6.962;2023-12-14T23:49:24;30.20;;;19.15;;
49978;SDS011;35869;50.990;6.962;2023-12-14T23:54:24;28.13;;;19.20;;
49978;SDS011;35869;50.990;6.962;2023-12-14T23:59:24;31.95;;;19.48;;
